sensor_id;sensor_type;location;lat;lon;timestamp;P1;durP1;ratioP1;P2;durP2;ratioP2
5787;SDS011;2920;48.158;12.254;2023-01-15T00:01:00;6.15;;;2.55;;
5787;SDS011;2920;48.158;12.254;2023-01-15T00:03:26;5.18;;;2.58;;
5787;SDS011;2920;48.158;12.254;2023-01-15T00:05:52;3.28;;;2.28;;
5787;SDS011;2920;48.158;12.254;2023-01-15T00:08:18;3.90;;;2.70;;
5787;SDS011;2920;48.158;12.254;2023-01-15T00:10:43;3.65;;;2.35;;
5787;SDS011;2920;48.158;12.254;2023-01-15T00:13:08;2.83;;;2.22;;
5787;SDS011;2920;48.158;12.254;2023-01-15T00:15:33;5.82;;;2.55;;
5787;SDS011;2920;48.158;12.254;2023-01-15T00:18:00;3.97;;;2.05;;
5787;SDS011;2920;48.158;12.254;2023-01-15T00:20:25;4.45;;;2.40;;
5787;SDS011;2920;48.158;12.254;2023-01-15T00:22:50;4.55;;;2.90;;
5787;SDS011;2920;48.158;12.254;2023-01-15T00:25:16;5.88;;;3.17;;
5787;SDS011;2920;48.158;12.254;2023-01-15T00:28:00;5.38;;;2.67;;
5787;SDS011;2920;48.158;12.254;2023-01-15T00:30:25;3.75;;;2.47;;
5787;SDS011;2920;48.158;12.254;2023-01-15T00:32:50;4.22;;;2.40;;
5787;SDS011;2920;48.158;12.254;2023-01-15T00:35:17;3.72;;;2.20;;
5787;SDS011;2920;48.158;12.254;2023-01-15T00:37:45;5.35;;;2.60;;
5787;SDS011;2920;48.158;12.254;2023-01-15T00:40:12;5.07;;;2.47;;
5787;SDS011;2920;48.158;12.254;2023-01-15T00:42:38;4.95;;;2.70;;
5787;SDS011;2920;48.158;12.254;2023-01-15T00:45:04;3.55;;;2.10;;
5787;SDS011;2920;48.158;12.254;2023-01-15T00:47:37;4.60;;;2.58;;
5787;SDS011;2920;48.158;12.254;2023-01-15T00:50:04;5.00;;;2.53;;
5787;SDS011;2920;48.158;12.254;2023-01-15T00:52:31;4.85;;;2.65;;
5787;SDS011;2920;48.158;12.254;2023-01-15T00:54:56;4.57;;;2.38;;
5787;SDS011;2920;48.158;12.254;2023-01-15T00:57:22;3.85;;;2.50;;
5787;SDS011;2920;48.158;12.254;2023-01-15T00:59:47;3.63;;;2.08;;
5787;SDS011;2920;48.158;12.254;2023-01-15T01:02:12;3.05;;;1.85;;
5787;SDS011;2920;48.158;12.254;2023-01-15T01:04:38;2.65;;;1.98;;
5787;SDS011;2920;48.158;12.254;2023-01-15T01:07:03;3.03;;;2.03;;
5787;SDS011;2920;48.158;12.254;2023-01-15T01:09:28;3.83;;;1.75;;
5787;SDS011;2920;48.158;12.254;2023-01-15T01:11:54;3.97;;;2.53;;
5787;SDS011;2920;48.158;12.254;2023-01-15T01:14:19;4.13;;;2.55;;
5787;SDS011;2920;48.158;12.254;2023-01-15T01:16:44;4.97;;;2.63;;
5787;SDS011;2920;48.158;12.254;2023-01-15T01:19:11;3.78;;;2.17;;
5787;SDS011;2920;48.158;12.254;2023-01-15T01:21:38;4.28;;;2.38;;
5787;SDS011;2920;48.158;12.254;2023-01-15T01:24:04;4.88;;;2.42;;
5787;SDS011;2920;48.158;12.254;2023-01-15T01:26:30;3.47;;;2.08;;
5787;SDS011;2920;48.158;12.254;2023-01-15T01:28:56;3.33;;;1.98;;
5787;SDS011;2920;48.158;12.254;2023-01-15T01:31:22;5.40;;;2.70;;
5787;SDS011;2920;48.158;12.254;2023-01-15T01:33:48;6.88;;;2.97;;
5787;SDS011;2920;48.158;12.254;2023-01-15T01:36:18;4.53;;;2.15;;
5787;SDS011;2920;48.158;12.254;2023-01-15T01:38:46;4.43;;;2.00;;
5787;SDS011;2920;48.158;12.254;2023-01-15T01:41:13;4.00;;;2.63;;
5787;SDS011;2920;48.158;12.254;2023-01-15T01:46:52;3.58;;;2.50;;
5787;SDS011;2920;48.158;12.254;2023-01-15T01:49:18;4.03;;;1.90;;
5787;SDS011;2920;48.158;12.254;2023-01-15T01:51:48;4.00;;;2.28;;
5787;SDS011;2920;48.158;12.254;2023-01-15T01:54:16;2.75;;;1.98;;
5787;SDS011;2920;48.158;12.254;2023-01-15T01:56:43;4.78;;;2.35;;
5787;SDS011;2920;48.158;12.254;2023-01-15T01:59:09;3.92;;;2.50;;
5787;SDS011;2920;48.158;12.254;2023-01-15T02:01:34;3.90;;;2.53;;
5787;SDS011;2920;48.158;12.254;2023-01-15T02:03:59;3.50;;;2.30;;
5787;SDS011;2920;48.158;12.254;2023-01-15T02:06:25;5.05;;;2.25;;
5787;SDS011;2920;48.158;12.254;2023-01-15T02:08:52;2.95;;;2.05;;
5787;SDS011;2920;48.158;12.254;2023-01-15T02:11:19;4.30;;;2.58;;
5787;SDS011;2920;48.158;12.254;2023-01-15T02:13:48;3.45;;;1.85;;
5787;SDS011;2920;48.158;12.254;2023-01-15T02:16:22;2.90;;;2.00;;
5787;SDS011;2920;48.158;12.254;2023-01-15T02:21:44;3.45;;;2.30;;
5787;SDS011;2920;48.158;12.254;2023-01-15T02:29:34;3.10;;;2.03;;
5787;SDS011;2920;48.158;12.254;2023-01-15T02:32:09;5.68;;;2.17;;
5787;SDS011;2920;48.158;12.254;2023-01-15T02:34:38;2.90;;;1.90;;
5787;SDS011;2920;48.158;12.254;2023-01-15T02:37:10;3.05;;;1.80;;
5787;SDS011;2920;48.158;12.254;2023-01-15T02:39:39;4.30;;;2.30;;
5787;SDS011;2920;48.158;12.254;2023-01-15T02:42:06;4.00;;;2.50;;
5787;SDS011;2920;48.158;12.254;2023-01-15T02:44:33;4.55;;;2.65;;
5787;SDS011;2920;48.158;12.254;2023-01-15T02:47:00;3.47;;;1.55;;
5787;SDS011;2920;48.158;12.254;2023-01-15T02:49:27;4.68;;;2.20;;
5787;SDS011;2920;48.158;12.254;2023-01-15T02:52:36;3.33;;;2.00;;
5787;SDS011;2920;48.158;12.254;2023-01-15T02:54:49;3.85;;;2.30;;
5787;SDS011;2920;48.158;12.254;2023-01-15T02:57:17;2.60;;;1.77;;
5787;SDS011;2920;48.158;12.254;2023-01-15T02:59:45;3.08;;;1.92;;
5787;SDS011;2920;48.158;12.254;2023-01-15T03:02:19;3.25;;;1.70;;
5787;SDS011;2920;48.158;12.254;2023-01-15T03:04:50;5.20;;;2.95;;
5787;SDS011;2920;48.158;12.254;2023-01-15T03:07:21;3.20;;;2.22;;
5787;SDS011;2920;48.158;12.254;2023-01-15T03:09:56;4.15;;;1.95;;
5787;SDS011;2920;48.158;12.254;2023-01-15T03:12:25;3.67;;;2.30;;
5787;SDS011;2920;48.158;12.254;2023-01-15T03:15:07;3.95;;;2.38;;
5787;SDS011;2920;48.158;12.254;2023-01-15T03:17:57;5.13;;;2.03;;
5787;SDS011;2920;48.158;12.254;2023-01-15T03:20:24;3.22;;;2.20;;
5787;SDS011;2920;48.158;12.254;2023-01-15T03:22:52;3.80;;;2.25;;
5787;SDS011;2920;48.158;12.254;2023-01-15T03:25:25;4.05;;;2.28;;
5787;SDS011;2920;48.158;12.254;2023-01-15T03:27:55;3.28;;;2.15;;
5787;SDS011;2920;48.158;12.254;2023-01-15T03:30:22;3.42;;;2.20;;
5787;SDS011;2920;48.158;12.254;2023-01-15T03:32:48;4.43;;;1.95;;
5787;SDS011;2920;48.158;12.254;2023-01-15T03:38:13;3.03;;;2.30;;
5787;SDS011;2920;48.158;12.254;2023-01-15T03:40:47;3.60;;;2.20;;
5787;SDS011;2920;48.158;12.254;2023-01-15T03:49:16;3.92;;;2.28;;
5787;SDS011;2920;48.158;12.254;2023-01-15T03:51:51;4.03;;;2.33;;
5787;SDS011;2920;48.158;12.254;2023-01-15T03:59:40;2.85;;;2.25;;
5787;SDS011;2920;48.158;12.254;2023-01-15T04:02:11;3.28;;;1.92;;
5787;SDS011;2920;48.158;12.254;2023-01-15T04:04:38;2.78;;;2.05;;
5787;SDS011;2920;48.158;12.254;2023-01-15T04:07:04;3.67;;;2.15;;
5787;SDS011;2920;48.158;12.254;2023-01-15T04:09:29;3.38;;;2.00;;
5787;SDS011;2920;48.158;12.254;2023-01-15T04:11:58;2.72;;;2.03;;
5787;SDS011;2920;48.158;12.254;2023-01-15T04:14:24;2.95;;;2.38;;
5787;SDS011;2920;48.158;12.254;2023-01-15T04:16:51;3.92;;;2.30;;
5787;SDS011;2920;48.158;12.254;2023-01-15T04:19:17;4.63;;;2.70;;
5787;SDS011;2920;48.158;12.254;2023-01-15T04:21:43;3.72;;;1.98;;
5787;SDS011;2920;48.158;12.254;2023-01-15T04:24:08;3.10;;;2.10;;
5787;SDS011;2920;48.158;12.254;2023-01-15T04:26:33;6.53;;;2.35;;
5787;SDS011;2920;48.158;12.254;2023-01-15T04:28:59;4.30;;;2.30;;
5787;SDS011;2920;48.158;12.254;2023-01-15T04:31:24;4.30;;;2.65;;
5787;SDS011;2920;48.158;12.254;2023-01-15T04:33:49;3.20;;;2.10;;
5787;SDS011;2920;48.158;12.254;2023-01-15T04:36:15;3.08;;;2.03;;
5787;SDS011;2920;48.158;12.254;2023-01-15T04:38:40;5.65;;;2.55;;
5787;SDS011;2920;48.158;12.254;2023-01-15T04:41:05;3.55;;;2.35;;
5787;SDS011;2920;48.158;12.254;2023-01-15T04:43:49;2.85;;;1.80;;
5787;SDS011;2920;48.158;12.254;2023-01-15T04:46:30;4.15;;;2.30;;
5787;SDS011;2920;48.158;12.254;2023-01-15T04:48:56;5.00;;;2.40;;
5787;SDS011;2920;48.158;12.254;2023-01-15T04:51:21;3.78;;;2.40;;
5787;SDS011;2920;48.158;12.254;2023-01-15T04:53:46;4.80;;;2.63;;
5787;SDS011;2920;48.158;12.254;2023-01-15T04:56:11;3.95;;;2.28;;
5787;SDS011;2920;48.158;12.254;2023-01-15T04:58:37;3.05;;;2.20;;
5787;SDS011;2920;48.158;12.254;2023-01-15T05:01:02;4.38;;;2.53;;
5787;SDS011;2920;48.158;12.254;2023-01-15T05:03:43;4.38;;;2.83;;
5787;SDS011;2920;48.158;12.254;2023-01-15T05:06:08;4.05;;;2.40;;
5787;SDS011;2920;48.158;12.254;2023-01-15T05:08:34;4.18;;;2.38;;
5787;SDS011;2920;48.158;12.254;2023-01-15T05:11:03;3.25;;;2.03;;
5787;SDS011;2920;48.158;12.254;2023-01-15T05:16:05;3.72;;;2.08;;
5787;SDS011;2920;48.158;12.254;2023-01-15T05:18:38;3.30;;;1.95;;
5787;SDS011;2920;48.158;12.254;2023-01-15T05:21:03;3.15;;;2.05;;
5787;SDS011;2920;48.158;12.254;2023-01-15T05:23:29;7.35;;;2.40;;
5787;SDS011;2920;48.158;12.254;2023-01-15T05:25:55;3.22;;;2.03;;
5787;SDS011;2920;48.158;12.254;2023-01-15T05:28:20;3.53;;;1.98;;
5787;SDS011;2920;48.158;12.254;2023-01-15T05:30:46;4.50;;;2.30;;
5787;SDS011;2920;48.158;12.254;2023-01-15T05:33:11;2.65;;;2.03;;
5787;SDS011;2920;48.158;12.254;2023-01-15T05:35:36;4.82;;;2.40;;
5787;SDS011;2920;48.158;12.254;2023-01-15T05:38:03;3.08;;;2.30;;
5787;SDS011;2920;48.158;12.254;2023-01-15T05:40:30;4.55;;;2.25;;
5787;SDS011;2920;48.158;12.254;2023-01-15T05:42:55;5.30;;;2.47;;
5787;SDS011;2920;48.158;12.254;2023-01-15T05:45:21;3.90;;;2.15;;
5787;SDS011;2920;48.158;12.254;2023-01-15T05:47:46;3.35;;;2.08;;
5787;SDS011;2920;48.158;12.254;2023-01-15T05:50:11;4.10;;;2.40;;
5787;SDS011;2920;48.158;12.254;2023-01-15T05:52:37;3.15;;;1.95;;
5787;SDS011;2920;48.158;12.254;2023-01-15T05:55:02;2.88;;;1.70;;
5787;SDS011;2920;48.158;12.254;2023-01-15T05:57:28;2.78;;;1.85;;
5787;SDS011;2920;48.158;12.254;2023-01-15T05:59:53;2.22;;;1.92;;
5787;SDS011;2920;48.158;12.254;2023-01-15T06:02:19;3.72;;;2.30;;
5787;SDS011;2920;48.158;12.254;2023-01-15T06:04:44;3.72;;;2.33;;
5787;SDS011;2920;48.158;12.254;2023-01-15T06:07:09;4.07;;;2.20;;
5787;SDS011;2920;48.158;12.254;2023-01-15T06:09:35;2.85;;;2.17;;
5787;SDS011;2920;48.158;12.254;2023-01-15T06:12:00;3.38;;;2.47;;
5787;SDS011;2920;48.158;12.254;2023-01-15T06:14:25;3.30;;;2.13;;
5787;SDS011;2920;48.158;12.254;2023-01-15T06:16:51;3.80;;;2.00;;
5787;SDS011;2920;48.158;12.254;2023-01-15T06:19:16;3.78;;;2.35;;
5787;SDS011;2920;48.158;12.254;2023-01-15T06:21:41;3.92;;;2.38;;
5787;SDS011;2920;48.158;12.254;2023-01-15T06:24:07;3.05;;;2.10;;
5787;SDS011;2920;48.158;12.254;2023-01-15T06:26:32;3.58;;;2.20;;
5787;SDS011;2920;48.158;12.254;2023-01-15T06:28:58;3.78;;;2.45;;
5787;SDS011;2920;48.158;12.254;2023-01-15T06:31:23;3.00;;;2.05;;
5787;SDS011;2920;48.158;12.254;2023-01-15T06:33:50;3.35;;;2.35;;
5787;SDS011;2920;48.158;12.254;2023-01-15T06:36:17;3.40;;;1.90;;
5787;SDS011;2920;48.158;12.254;2023-01-15T06:38:45;3.30;;;2.15;;
5787;SDS011;2920;48.158;12.254;2023-01-15T06:41:16;3.15;;;2.40;;
5787;SDS011;2920;48.158;12.254;2023-01-15T06:44:01;5.78;;;2.13;;
5787;SDS011;2920;48.158;12.254;2023-01-15T06:46:46;7.32;;;1.92;;
5787;SDS011;2920;48.158;12.254;2023-01-15T06:49:32;4.85;;;2.42;;
5787;SDS011;2920;48.158;12.254;2023-01-15T06:51:58;3.90;;;2.08;;
5787;SDS011;2920;48.158;12.254;2023-01-15T06:54:24;3.10;;;2.47;;
5787;SDS011;2920;48.158;12.254;2023-01-15T06:56:49;7.72;;;5.57;;
5787;SDS011;2920;48.158;12.254;2023-01-15T06:59:15;3.78;;;2.95;;
5787;SDS011;2920;48.158;12.254;2023-01-15T07:01:40;4.53;;;2.38;;
5787;SDS011;2920;48.158;12.254;2023-01-15T07:04:06;3.38;;;2.20;;
5787;SDS011;2920;48.158;12.254;2023-01-15T07:06:31;3.40;;;2.35;;
5787;SDS011;2920;48.158;12.254;2023-01-15T07:08:56;3.22;;;2.05;;
5787;SDS011;2920;48.158;12.254;2023-01-15T07:11:22;2.92;;;2.17;;
5787;SDS011;2920;48.158;12.254;2023-01-15T07:13:47;3.70;;;2.45;;
5787;SDS011;2920;48.158;12.254;2023-01-15T07:16:13;5.05;;;2.50;;
5787;SDS011;2920;48.158;12.254;2023-01-15T07:18:53;3.80;;;2.38;;
5787;SDS011;2920;48.158;12.254;2023-01-15T07:21:18;5.18;;;2.83;;
5787;SDS011;2920;48.158;12.254;2023-01-15T07:23:43;3.85;;;2.70;;
5787;SDS011;2920;48.158;12.254;2023-01-15T07:26:09;3.92;;;2.00;;
5787;SDS011;2920;48.158;12.254;2023-01-15T07:28:34;3.90;;;2.17;;
5787;SDS011;2920;48.158;12.254;2023-01-15T07:30:59;4.25;;;2.75;;
5787;SDS011;2920;48.158;12.254;2023-01-15T07:33:25;3.70;;;2.58;;
5787;SDS011;2920;48.158;12.254;2023-01-15T07:35:50;2.85;;;2.28;;
5787;SDS011;2920;48.158;12.254;2023-01-15T07:38:15;5.05;;;2.30;;
5787;SDS011;2920;48.158;12.254;2023-01-15T07:40:41;5.15;;;2.28;;
5787;SDS011;2920;48.158;12.254;2023-01-15T07:43:07;3.53;;;2.60;;
5787;SDS011;2920;48.158;12.254;2023-01-15T07:45:51;3.58;;;2.40;;
5787;SDS011;2920;48.158;12.254;2023-01-15T07:48:35;3.88;;;2.90;;
5787;SDS011;2920;48.158;12.254;2023-01-15T07:51:19;3.83;;;2.45;;
5787;SDS011;2920;48.158;12.254;2023-01-15T07:53:45;3.90;;;2.60;;
5787;SDS011;2920;48.158;12.254;2023-01-15T07:56:10;4.25;;;2.78;;
5787;SDS011;2920;48.158;12.254;2023-01-15T07:58:35;4.72;;;2.83;;
5787;SDS011;2920;48.158;12.254;2023-01-15T08:01:00;3.80;;;2.78;;
5787;SDS011;2920;48.158;12.254;2023-01-15T08:03:26;5.10;;;2.10;;
5787;SDS011;2920;48.158;12.254;2023-01-15T08:05:51;3.22;;;2.10;;
5787;SDS011;2920;48.158;12.254;2023-01-15T08:08:16;4.50;;;2.42;;
5787;SDS011;2920;48.158;12.254;2023-01-15T08:10:42;2.97;;;2.03;;
5787;SDS011;2920;48.158;12.254;2023-01-15T08:13:26;2.22;;;1.90;;
5787;SDS011;2920;48.158;12.254;2023-01-15T08:16:10;4.45;;;2.63;;
5787;SDS011;2920;48.158;12.254;2023-01-15T08:18:36;3.20;;;2.17;;
5787;SDS011;2920;48.158;12.254;2023-01-15T08:21:02;3.97;;;2.70;;
5787;SDS011;2920;48.158;12.254;2023-01-15T08:23:27;4.60;;;2.88;;
5787;SDS011;2920;48.158;12.254;2023-01-15T08:25:52;4.95;;;2.47;;
5787;SDS011;2920;48.158;12.254;2023-01-15T08:28:18;3.72;;;2.10;;
5787;SDS011;2920;48.158;12.254;2023-01-15T08:30:43;4.05;;;2.22;;
5787;SDS011;2920;48.158;12.254;2023-01-15T08:33:09;5.28;;;2.58;;
5787;SDS011;2920;48.158;12.254;2023-01-15T08:35:34;3.20;;;2.47;;
5787;SDS011;2920;48.158;12.254;2023-01-15T08:38:03;3.28;;;2.30;;
5787;SDS011;2920;48.158;12.254;2023-01-15T08:40:30;4.75;;;2.55;;
5787;SDS011;2920;48.158;12.254;2023-01-15T08:42:55;6.65;;;3.35;;
5787;SDS011;2920;48.158;12.254;2023-01-15T08:45:20;4.53;;;2.70;;
5787;SDS011;2920;48.158;12.254;2023-01-15T08:47:46;4.07;;;2.60;;
5787;SDS011;2920;48.158;12.254;2023-01-15T08:50:11;3.85;;;2.40;;
5787;SDS011;2920;48.158;12.254;2023-01-15T08:52:36;5.78;;;2.50;;
5787;SDS011;2920;48.158;12.254;2023-01-15T08:55:02;4.57;;;2.50;;
5787;SDS011;2920;48.158;12.254;2023-01-15T08:57:28;3.95;;;2.38;;
5787;SDS011;2920;48.158;12.254;2023-01-15T08:59:53;11.40;;;5.53;;
5787;SDS011;2920;48.158;12.254;2023-01-15T09:02:19;5.78;;;3.30;;
5787;SDS011;2920;48.158;12.254;2023-01-15T09:04:44;6.13;;;3.03;;
5787;SDS011;2920;48.158;12.254;2023-01-15T09:07:10;5.05;;;2.97;;
5787;SDS011;2920;48.158;12.254;2023-01-15T09:09:35;5.97;;;2.90;;
5787;SDS011;2920;48.158;12.254;2023-01-15T09:12:01;8.00;;;5.10;;
5787;SDS011;2920;48.158;12.254;2023-01-15T09:14:26;6.28;;;3.30;;
5787;SDS011;2920;48.158;12.254;2023-01-15T09:16:52;4.63;;;3.05;;
5787;SDS011;2920;48.158;12.254;2023-01-15T09:19:17;8.40;;;5.38;;
5787;SDS011;2920;48.158;12.254;2023-01-15T09:21:42;6.28;;;3.47;;
5787;SDS011;2920;48.158;12.254;2023-01-15T09:24:08;7.30;;;4.13;;
5787;SDS011;2920;48.158;12.254;2023-01-15T09:26:37;5.43;;;3.63;;
5787;SDS011;2920;48.158;12.254;2023-01-15T09:29:04;4.18;;;2.42;;
5787;SDS011;2920;48.158;12.254;2023-01-15T09:31:30;3.70;;;2.42;;
5787;SDS011;2920;48.158;12.254;2023-01-15T09:33:55;4.25;;;2.17;;
5787;SDS011;2920;48.158;12.254;2023-01-15T09:36:31;5.07;;;3.15;;
5787;SDS011;2920;48.158;12.254;2023-01-15T09:38:58;4.32;;;2.50;;
5787;SDS011;2920;48.158;12.254;2023-01-15T09:41:24;5.35;;;2.35;;
5787;SDS011;2920;48.158;12.254;2023-01-15T09:47:04;4.28;;;2.05;;
5787;SDS011;2920;48.158;12.254;2023-01-15T09:55:18;4.32;;;2.60;;
5787;SDS011;2920;48.158;12.254;2023-01-15T09:57:45;3.63;;;2.15;;
5787;SDS011;2920;48.158;12.254;2023-01-15T10:00:21;2.45;;;1.90;;
5787;SDS011;2920;48.158;12.254;2023-01-15T10:02:49;2.72;;;1.60;;
5787;SDS011;2920;48.158;12.254;2023-01-15T10:05:20;3.22;;;2.25;;
5787;SDS011;2920;48.158;12.254;2023-01-15T10:08:03;2.55;;;1.80;;
5787;SDS011;2920;48.158;12.254;2023-01-15T10:10:53;4.25;;;1.85;;
5787;SDS011;2920;48.158;12.254;2023-01-15T10:16:09;4.55;;;2.42;;
5787;SDS011;2920;48.158;12.254;2023-01-15T10:18:35;2.92;;;2.00;;
5787;SDS011;2920;48.158;12.254;2023-01-15T10:26:38;3.83;;;1.88;;
5787;SDS011;2920;48.158;12.254;2023-01-15T10:32:02;3.83;;;2.13;;
5787;SDS011;2920;48.158;12.254;2023-01-15T10:34:58;2.67;;;2.17;;
5787;SDS011;2920;48.158;12.254;2023-01-15T10:37:51;5.18;;;2.22;;
5787;SDS011;2920;48.158;12.254;2023-01-15T10:40:27;2.88;;;1.90;;
5787;SDS011;2920;48.158;12.254;2023-01-15T10:43:06;1.98;;;1.00;;
5787;SDS011;2920;48.158;12.254;2023-01-15T10:45:40;1.67;;;0.40;;
5787;SDS011;2920;48.158;12.254;2023-01-15T10:50:55;2.35;;;1.45;;
5787;SDS011;2920;48.158;12.254;2023-01-15T10:56:07;0.20;;;0.20;;
5787;SDS011;2920;48.158;12.254;2023-01-15T10:58:56;0.08;;;0.08;;
5787;SDS011;2920;48.158;12.254;2023-01-15T11:01:26;0.30;;;0.30;;
5787;SDS011;2920;48.158;12.254;2023-01-15T11:03:51;0.32;;;0.30;;
5787;SDS011;2920;48.158;12.254;2023-01-15T11:06:18;0.52;;;0.28;;
5787;SDS011;2920;48.158;12.254;2023-01-15T11:08:53;0.20;;;0.10;;
5787;SDS011;2920;48.158;12.254;2023-01-15T11:11:31;1.38;;;0.30;;
5787;SDS011;2920;48.158;12.254;2023-01-15T11:14:18;0.15;;;0.15;;
5787;SDS011;2920;48.158;12.254;2023-01-15T11:17:02;0.28;;;0.08;;
5787;SDS011;2920;48.158;12.254;2023-01-15T11:19:34;0.08;;;0.08;;
5787;SDS011;2920;48.158;12.254;2023-01-15T11:22:16;0.30;;;0.30;;
5787;SDS011;2920;48.158;12.254;2023-01-15T11:24:50;0.90;;;0.20;;
5787;SDS011;2920;48.158;12.254;2023-01-15T11:27:25;0.10;;;0.10;;
5787;SDS011;2920;48.158;12.254;2023-01-15T11:29:53;0.30;;;0.15;;
5787;SDS011;2920;48.158;12.254;2023-01-15T11:34:58;2.25;;;1.00;;
5787;SDS011;2920;48.158;12.254;2023-01-15T11:37:24;0.10;;;0.10;;
5787;SDS011;2920;48.158;12.254;2023-01-15T11:39:52;0.15;;;0.15;;
5787;SDS011;2920;48.158;12.254;2023-01-15T11:42:19;0.00;;;0.00;;
5787;SDS011;2920;48.158;12.254;2023-01-15T11:45:10;0.75;;;0.45;;
5787;SDS011;2920;48.158;12.254;2023-01-15T11:47:55;0.20;;;0.20;;
5787;SDS011;2920;48.158;12.254;2023-01-15T11:50:46;0.30;;;0.30;;
5787;SDS011;2920;48.158;12.254;2023-01-15T11:53:14;0.22;;;0.22;;
5787;SDS011;2920;48.158;12.254;2023-01-15T11:55:49;2.25;;;0.28;;
5787;SDS011;2920;48.158;12.254;2023-01-15T11:58:19;0.10;;;0.10;;
5787;SDS011;2920;48.158;12.254;2023-01-15T12:00:48;0.40;;;0.30;;
5787;SDS011;2920;48.158;12.254;2023-01-15T12:03:16;0.30;;;0.30;;
5787;SDS011;2920;48.158;12.254;2023-01-15T12:05:52;0.20;;;0.20;;
5787;SDS011;2920;48.158;12.254;2023-01-15T12:08:27;0.10;;;0.10;;
5787;SDS011;2920;48.158;12.254;2023-01-15T12:16:36;0.35;;;0.28;;
5787;SDS011;2920;48.158;12.254;2023-01-15T12:22:01;0.60;;;0.40;;
5787;SDS011;2920;48.158;12.254;2023-01-15T12:31:05;0.65;;;0.20;;
5787;SDS011;2920;48.158;12.254;2023-01-15T12:39:00;2.03;;;1.30;;
5787;SDS011;2920;48.158;12.254;2023-01-15T12:41:30;0.63;;;0.50;;
5787;SDS011;2920;48.158;12.254;2023-01-15T12:47:19;0.73;;;0.73;;
5787;SDS011;2920;48.158;12.254;2023-01-15T12:49:52;0.75;;;0.75;;
5787;SDS011;2920;48.158;12.254;2023-01-15T12:52:23;0.70;;;0.70;;
5787;SDS011;2920;48.158;12.254;2023-01-15T12:55:00;0.90;;;0.80;;
5787;SDS011;2920;48.158;12.254;2023-01-15T12:57:35;1.25;;;1.00;;
5787;SDS011;2920;48.158;12.254;2023-01-15T13:02:39;0.40;;;0.40;;
5787;SDS011;2920;48.158;12.254;2023-01-15T13:05:18;1.75;;;0.60;;
5787;SDS011;2920;48.158;12.254;2023-01-15T13:07:54;2.00;;;1.80;;
5787;SDS011;2920;48.158;12.254;2023-01-15T13:10:40;1.73;;;1.63;;
5787;SDS011;2920;48.158;12.254;2023-01-15T13:16:55;0.90;;;0.88;;
5787;SDS011;2920;48.158;12.254;2023-01-15T13:21:17;1.17;;;1.10;;
5787;SDS011;2920;48.158;12.254;2023-01-15T13:24:00;1.75;;;1.33;;
5787;SDS011;2920;48.158;12.254;2023-01-15T13:29:29;1.05;;;0.75;;
5787;SDS011;2920;48.158;12.254;2023-01-15T13:32:02;1.30;;;0.88;;
5787;SDS011;2920;48.158;12.254;2023-01-15T13:34:45;0.43;;;0.43;;
5787;SDS011;2920;48.158;12.254;2023-01-15T13:37:21;0.37;;;0.37;;
5787;SDS011;2920;48.158;12.254;2023-01-15T13:39:48;1.30;;;1.20;;
5787;SDS011;2920;48.158;12.254;2023-01-15T13:42:17;1.20;;;1.10;;
5787;SDS011;2920;48.158;12.254;2023-01-15T13:45:04;1.30;;;1.17;;
5787;SDS011;2920;48.158;12.254;2023-01-15T13:47:51;1.00;;;1.00;;
5787;SDS011;2920;48.158;12.254;2023-01-15T13:50:23;0.47;;;0.47;;
5787;SDS011;2920;48.158;12.254;2023-01-15T13:55:50;0.43;;;0.43;;
5787;SDS011;2920;48.158;12.254;2023-01-15T13:58:25;1.08;;;0.90;;
5787;SDS011;2920;48.158;12.254;2023-01-15T14:01:37;1.10;;;1.00;;
5787;SDS011;2920;48.158;12.254;2023-01-15T14:20:30;2.00;;;1.85;;
5787;SDS011;2920;48.158;12.254;2023-01-15T14:23:04;1.83;;;1.50;;
5787;SDS011;2920;48.158;12.254;2023-01-15T14:28:29;1.38;;;1.23;;
5787;SDS011;2920;48.158;12.254;2023-01-15T14:31:32;1.55;;;1.02;;
5787;SDS011;2920;48.158;12.254;2023-01-15T14:34:11;1.05;;;0.95;;
5787;SDS011;2920;48.158;12.254;2023-01-15T14:36:49;1.17;;;1.10;;
5787;SDS011;2920;48.158;12.254;2023-01-15T14:39:25;1.00;;;0.82;;
5787;SDS011;2920;48.158;12.254;2023-01-15T14:41:54;0.77;;;0.70;;
5787;SDS011;2920;48.158;12.254;2023-01-15T14:44:40;1.08;;;0.90;;
5787;SDS011;2920;48.158;12.254;2023-01-15T14:47:13;0.75;;;0.70;;
5787;SDS011;2920;48.158;12.254;2023-01-15T14:49:44;0.63;;;0.63;;
5787;SDS011;2920;48.158;12.254;2023-01-15T14:52:14;0.60;;;0.60;;
5787;SDS011;2920;48.158;12.254;2023-01-15T14:54:45;0.55;;;0.30;;
5787;SDS011;2920;48.158;12.254;2023-01-15T14:57:11;0.17;;;0.17;;
5787;SDS011;2920;48.158;12.254;2023-01-15T15:02:13;0.82;;;0.68;;
5787;SDS011;2920;48.158;12.254;2023-01-15T15:04:51;1.00;;;0.57;;
5787;SDS011;2920;48.158;12.254;2023-01-15T15:07:29;2.17;;;0.73;;
5787;SDS011;2920;48.158;12.254;2023-01-15T15:10:08;2.72;;;0.50;;
5787;SDS011;2920;48.158;12.254;2023-01-15T15:12:39;0.75;;;0.43;;
5787;SDS011;2920;48.158;12.254;2023-01-15T15:23:11;0.52;;;0.52;;
5787;SDS011;2920;48.158;12.254;2023-01-15T15:25:39;0.70;;;0.57;;
5787;SDS011;2920;48.158;12.254;2023-01-15T15:28:08;1.23;;;0.80;;
5787;SDS011;2920;48.158;12.254;2023-01-15T15:30:34;0.43;;;0.43;;
5787;SDS011;2920;48.158;12.254;2023-01-15T15:33:03;0.38;;;0.38;;
5787;SDS011;2920;48.158;12.254;2023-01-15T15:35:30;0.85;;;0.50;;
5787;SDS011;2920;48.158;12.254;2023-01-15T15:38:05;0.73;;;0.73;;
5787;SDS011;2920;48.158;12.254;2023-01-15T15:40:32;0.65;;;0.50;;
5787;SDS011;2920;48.158;12.254;2023-01-15T15:43:18;0.47;;;0.47;;
5787;SDS011;2920;48.158;12.254;2023-01-15T15:46:17;0.70;;;0.65;;
5787;SDS011;2920;48.158;12.254;2023-01-15T15:49:06;1.30;;;1.02;;
5787;SDS011;2920;48.158;12.254;2023-01-15T15:56:44;2.88;;;1.00;;
5787;SDS011;2920;48.158;12.254;2023-01-15T16:02:12;7.32;;;3.60;;
5787;SDS011;2920;48.158;12.254;2023-01-15T16:04:44;0.90;;;0.75;;
5787;SDS011;2920;48.158;12.254;2023-01-15T16:07:20;0.22;;;0.22;;
5787;SDS011;2920;48.158;12.254;2023-01-15T16:09:58;0.55;;;0.50;;
5787;SDS011;2920;48.158;12.254;2023-01-15T16:12:30;0.30;;;0.30;;
5787;SDS011;2920;48.158;12.254;2023-01-15T16:14:58;1.15;;;0.50;;
5787;SDS011;2920;48.158;12.254;2023-01-15T16:17:24;0.57;;;0.50;;
5787;SDS011;2920;48.158;12.254;2023-01-15T16:19:54;0.60;;;0.60;;
5787;SDS011;2920;48.158;12.254;2023-01-15T16:22:20;0.40;;;0.20;;
5787;SDS011;2920;48.158;12.254;2023-01-15T16:24:55;2.40;;;0.95;;
5787;SDS011;2920;48.158;12.254;2023-01-15T16:27:22;0.63;;;0.60;;
5787;SDS011;2920;48.158;12.254;2023-01-15T16:32:19;0.90;;;0.70;;
5787;SDS011;2920;48.158;12.254;2023-01-15T16:34:47;0.90;;;0.90;;
5787;SDS011;2920;48.158;12.254;2023-01-15T16:37:20;0.47;;;0.47;;
5787;SDS011;2920;48.158;12.254;2023-01-15T16:39:49;0.63;;;0.63;;
5787;SDS011;2920;48.158;12.254;2023-01-15T16:42:36;0.77;;;0.75;;
5787;SDS011;2920;48.158;12.254;2023-01-15T16:45:21;1.27;;;1.02;;
5787;SDS011;2920;48.158;12.254;2023-01-15T16:48:02;0.70;;;0.70;;
5787;SDS011;2920;48.158;12.254;2023-01-15T16:50:36;0.90;;;0.77;;
5787;SDS011;2920;48.158;12.254;2023-01-15T16:53:04;1.38;;;1.10;;
5787;SDS011;2920;48.158;12.254;2023-01-15T16:58:20;1.13;;;0.88;;
5787;SDS011;2920;48.158;12.254;2023-01-15T17:00:46;1.20;;;0.88;;
5787;SDS011;2920;48.158;12.254;2023-01-15T17:03:15;0.38;;;0.38;;
5787;SDS011;2920;48.158;12.254;2023-01-15T17:05:40;1.02;;;0.80;;
5787;SDS011;2920;48.158;12.254;2023-01-15T17:08:14;0.95;;;0.70;;
5787;SDS011;2920;48.158;12.254;2023-01-15T17:10:40;0.73;;;0.50;;
5787;SDS011;2920;48.158;12.254;2023-01-15T17:13:17;0.73;;;0.73;;
5787;SDS011;2920;48.158;12.254;2023-01-15T17:15:43;1.58;;;1.00;;
5787;SDS011;2920;48.158;12.254;2023-01-15T17:18:19;1.13;;;0.80;;
5787;SDS011;2920;48.158;12.254;2023-01-15T17:20:46;2.58;;;0.68;;
5787;SDS011;2920;48.158;12.254;2023-01-15T17:23:11;0.90;;;0.55;;
5787;SDS011;2920;48.158;12.254;2023-01-15T17:25:37;1.13;;;0.60;;
5787;SDS011;2920;48.158;12.254;2023-01-15T17:28:02;1.73;;;0.98;;
5787;SDS011;2920;48.158;12.254;2023-01-15T17:30:29;2.20;;;0.90;;
5787;SDS011;2920;48.158;12.254;2023-01-15T17:33:02;1.17;;;0.68;;
5787;SDS011;2920;48.158;12.254;2023-01-15T17:35:30;2.10;;;1.10;;